sensor_id;sensor_type;location;lat;lon;timestamp;P1;durP1;ratioP1;P2;durP2;ratioP2
4873;SDS011;2451;49.970;9.068;2023-02-15T00:01:39;41.22;;;18.77;;
4873;SDS011;2451;49.970;9.068;2023-02-15T00:04:06;40.05;;;18.60;;
4873;SDS011;2451;49.970;9.068;2023-02-15T00:06:33;33.35;;;17.42;;
4873;SDS011;2451;49.970;9.068;2023-02-15T00:08:59;41.45;;;18.27;;
4873;SDS011;2451;49.970;9.068;2023-02-15T00:11:25;37.33;;;17.83;;
4873;SDS011;2451;49.970;9.068;2023-02-15T00:14:20;36.85;;;17.77;;
4873;SDS011;2451;49.970;9.068;2023-02-15T00:16:48;37.67;;;17.23;;
4873;SDS011;2451;49.970;9.068;2023-02-15T00:19:15;40.20;;;18.40;;
4873;SDS011;2451;49.970;9.068;2023-02-15T00:21:42;40.17;;;18.00;;
4873;SDS011;2451;49.970;9.068;2023-02-15T00:24:08;41.55;;;19.02;;
4873;SDS011;2451;49.970;9.068;2023-02-15T00:26:37;41.60;;;19.02;;
4873;SDS011;2451;49.970;9.068;2023-02-15T00:29:04;38.10;;;18.23;;
4873;SDS011;2451;49.970;9.068;2023-02-15T00:31:31;42.53;;;18.95;;
4873;SDS011;2451;49.970;9.068;2023-02-15T00:34:01;41.72;;;18.90;;
4873;SDS011;2451;49.970;9.068;2023-02-15T00:36:37;40.42;;;19.40;;
4873;SDS011;2451;49.970;9.068;2023-02-15T00:39:03;36.90;;;17.48;;
4873;SDS011;2451;49.970;9.068;2023-02-15T00:41:30;36.25;;;18.10;;
4873;SDS011;2451;49.970;9.068;2023-02-15T00:43:58;44.88;;;19.83;;
4873;SDS011;2451;49.970;9.068;2023-02-15T00:46:24;45.10;;;19.77;;
4873;SDS011;2451;49.970;9.068;2023-02-15T00:48:50;41.78;;;19.83;;
4873;SDS011;2451;49.970;9.068;2023-02-15T00:51:15;43.55;;;18.60;;
4873;SDS011;2451;49.970;9.068;2023-02-15T00:53:42;40.25;;;19.05;;
4873;SDS011;2451;49.970;9.068;2023-02-15T00:56:09;44.88;;;19.17;;
4873;SDS011;2451;49.970;9.068;2023-02-15T00:58:35;44.92;;;19.85;;
4873;SDS011;2451;49.970;9.068;2023-02-15T01:01:04;41.55;;;19.70;;
4873;SDS011;2451;49.970;9.068;2023-02-15T01:03:32;44.55;;;20.05;;
4873;SDS011;2451;49.970;9.068;2023-02-15T01:05:58;42.65;;;19.98;;
4873;SDS011;2451;49.970;9.068;2023-02-15T01:08:24;45.95;;;20.23;;
4873;SDS011;2451;49.970;9.068;2023-02-15T01:10:50;46.95;;;19.88;;
4873;SDS011;2451;49.970;9.068;2023-02-15T01:13:16;44.97;;;19.50;;
4873;SDS011;2451;49.970;9.068;2023-02-15T01:15:42;40.97;;;19.00;;
4873;SDS011;2451;49.970;9.068;2023-02-15T01:18:09;43.08;;;19.55;;
4873;SDS011;2451;49.970;9.068;2023-02-15T01:20:35;49.25;;;21.80;;
4873;SDS011;2451;49.970;9.068;2023-02-15T01:23:03;45.90;;;21.35;;
4873;SDS011;2451;49.970;9.068;2023-02-15T01:25:30;42.97;;;19.58;;
4873;SDS011;2451;49.970;9.068;2023-02-15T01:27:55;49.70;;;19.90;;
4873;SDS011;2451;49.970;9.068;2023-02-15T01:30:21;44.20;;;20.15;;
4873;SDS011;2451;49.970;9.068;2023-02-15T01:32:46;42.35;;;19.08;;
4873;SDS011;2451;49.970;9.068;2023-02-15T01:35:12;48.60;;;21.05;;
4873;SDS011;2451;49.970;9.068;2023-02-15T01:37:37;42.97;;;19.42;;
4873;SDS011;2451;49.970;9.068;2023-02-15T01:40:04;43.42;;;19.05;;
4873;SDS011;2451;49.970;9.068;2023-02-15T01:42:32;38.22;;;18.85;;
4873;SDS011;2451;49.970;9.068;2023-02-15T01:44:58;40.42;;;19.40;;
4873;SDS011;2451;49.970;9.068;2023-02-15T01:52:54;44.22;;;18.40;;
4873;SDS011;2451;49.970;9.068;2023-02-15T01:55:23;44.42;;;19.13;;
4873;SDS011;2451;49.970;9.068;2023-02-15T01:57:53;39.85;;;18.70;;
4873;SDS011;2451;49.970;9.068;2023-02-15T02:00:19;42.78;;;19.17;;
4873;SDS011;2451;49.970;9.068;2023-02-15T02:02:46;42.00;;;18.48;;
4873;SDS011;2451;49.970;9.068;2023-02-15T02:05:16;48.40;;;19.67;;
4873;SDS011;2451;49.970;9.068;2023-02-15T02:07:42;40.35;;;18.30;;
4873;SDS011;2451;49.970;9.068;2023-02-15T02:10:12;43.33;;;18.65;;
4873;SDS011;2451;49.970;9.068;2023-02-15T02:12:40;44.35;;;19.30;;
4873;SDS011;2451;49.970;9.068;2023-02-15T02:15:08;41.58;;;18.83;;
4873;SDS011;2451;49.970;9.068;2023-02-15T02:17:47;38.38;;;17.77;;
4873;SDS011;2451;49.970;9.068;2023-02-15T02:20:30;43.22;;;20.00;;
4873;SDS011;2451;49.970;9.068;2023-02-15T02:31:48;43.70;;;19.67;;
4873;SDS011;2451;49.970;9.068;2023-02-15T02:34:33;40.28;;;17.85;;
4873;SDS011;2451;49.970;9.068;2023-02-15T02:42:15;39.30;;;18.88;;
4873;SDS011;2451;49.970;9.068;2023-02-15T02:44:56;38.97;;;19.25;;
4873;SDS011;2451;49.970;9.068;2023-02-15T02:47:44;41.53;;;18.23;;
4873;SDS011;2451;49.970;9.068;2023-02-15T02:50:16;45.92;;;19.00;;
4873;SDS011;2451;49.970;9.068;2023-02-15T02:52:48;35.40;;;17.02;;
4873;SDS011;2451;49.970;9.068;2023-02-15T02:55:16;42.00;;;18.27;;
4873;SDS011;2451;49.970;9.068;2023-02-15T03:00:22;38.30;;;17.55;;
4873;SDS011;2451;49.970;9.068;2023-02-15T03:02:52;38.97;;;18.15;;
4873;SDS011;2451;49.970;9.068;2023-02-15T03:05:24;40.05;;;17.88;;
4873;SDS011;2451;49.970;9.068;2023-02-15T03:07:54;41.17;;;18.48;;
4873;SDS011;2451;49.970;9.068;2023-02-15T03:10:22;39.72;;;18.42;;
4873;SDS011;2451;49.970;9.068;2023-02-15T03:12:49;38.25;;;18.50;;
4873;SDS011;2451;49.970;9.068;2023-02-15T03:15:17;38.42;;;17.52;;
4873;SDS011;2451;49.970;9.068;2023-02-15T03:17:47;34.40;;;17.10;;
4873;SDS011;2451;49.970;9.068;2023-02-15T03:20:22;38.65;;;17.75;;
4873;SDS011;2451;49.970;9.068;2023-02-15T03:22:54;39.15;;;17.58;;
4873;SDS011;2451;49.970;9.068;2023-02-15T03:25:25;36.85;;;17.38;;
4873;SDS011;2451;49.970;9.068;2023-02-15T03:27:58;35.63;;;17.17;;
4873;SDS011;2451;49.970;9.068;2023-02-15T03:30:31;40.30;;;18.70;;
4873;SDS011;2451;49.970;9.068;2023-02-15T03:32:59;39.08;;;17.65;;
4873;SDS011;2451;49.970;9.068;2023-02-15T03:35:30;37.88;;;17.05;;
4873;SDS011;2451;49.970;9.068;2023-02-15T03:38:39;37.20;;;18.02;;
4873;SDS011;2451;49.970;9.068;2023-02-15T03:41:18;39.50;;;18.02;;
4873;SDS011;2451;49.970;9.068;2023-02-15T03:43:55;41.10;;;18.48;;
4873;SDS011;2451;49.970;9.068;2023-02-15T03:46:24;38.97;;;17.73;;
4873;SDS011;2451;49.970;9.068;2023-02-15T03:48:54;38.10;;;17.35;;
4873;SDS011;2451;49.970;9.068;2023-02-15T03:51:25;40.08;;;18.98;;
4873;SDS011;2451;49.970;9.068;2023-02-15T03:54:20;38.95;;;17.80;;
4873;SDS011;2451;49.970;9.068;2023-02-15T04:05:30;38.92;;;18.17;;
4873;SDS011;2451;49.970;9.068;2023-02-15T04:07:55;37.75;;;16.67;;
4873;SDS011;2451;49.970;9.068;2023-02-15T04:10:21;37.47;;;17.25;;
4873;SDS011;2451;49.970;9.068;2023-02-15T04:13:05;38.53;;;16.98;;
4873;SDS011;2451;49.970;9.068;2023-02-15T04:15:31;36.95;;;18.15;;
4873;SDS011;2451;49.970;9.068;2023-02-15T04:18:15;43.17;;;17.98;;
4873;SDS011;2451;49.970;9.068;2023-02-15T04:20:43;38.47;;;17.63;;
4873;SDS011;2451;49.970;9.068;2023-02-15T04:23:28;38.75;;;18.02;;
4873;SDS011;2451;49.970;9.068;2023-02-15T04:26:12;37.45;;;16.52;;
4873;SDS011;2451;49.970;9.068;2023-02-15T04:28:37;38.30;;;17.15;;
4873;SDS011;2451;49.970;9.068;2023-02-15T04:31:02;39.40;;;17.77;;
4873;SDS011;2451;49.970;9.068;2023-02-15T04:33:28;35.72;;;17.98;;
4873;SDS011;2451;49.970;9.068;2023-02-15T04:35:54;38.47;;;17.60;;
4873;SDS011;2451;49.970;9.068;2023-02-15T04:38:19;37.97;;;17.60;;
4873;SDS011;2451;49.970;9.068;2023-02-15T04:40:48;38.38;;;17.23;;
4873;SDS011;2451;49.970;9.068;2023-02-15T04:43:16;38.30;;;18.33;;
4873;SDS011;2451;49.970;9.068;2023-02-15T04:45:41;38.55;;;17.83;;
4873;SDS011;2451;49.970;9.068;2023-02-15T04:48:16;39.53;;;18.13;;
4873;SDS011;2451;49.970;9.068;2023-02-15T04:50:42;40.70;;;18.38;;
4873;SDS011;2451;49.970;9.068;2023-02-15T04:53:08;38.50;;;17.83;;
4873;SDS011;2451;49.970;9.068;2023-02-15T04:55:34;35.22;;;16.73;;
4873;SDS011;2451;49.970;9.068;2023-02-15T04:57:59;39.53;;;17.90;;
4873;SDS011;2451;49.970;9.068;2023-02-15T05:00:25;35.22;;;16.70;;
4873;SDS011;2451;49.970;9.068;2023-02-15T05:02:50;37.78;;;17.20;;
4873;SDS011;2451;49.970;9.068;2023-02-15T05:05:16;39.15;;;17.13;;
4873;SDS011;2451;49.970;9.068;2023-02-15T05:07:42;37.03;;;16.85;;
4873;SDS011;2451;49.970;9.068;2023-02-15T05:10:07;38.78;;;17.98;;
4873;SDS011;2451;49.970;9.068;2023-02-15T05:12:33;36.60;;;17.05;;
4873;SDS011;2451;49.970;9.068;2023-02-15T05:14:59;36.78;;;17.15;;
4873;SDS011;2451;49.970;9.068;2023-02-15T05:17:24;34.25;;;16.35;;
4873;SDS011;2451;49.970;9.068;2023-02-15T05:19:50;33.83;;;16.60;;
4873;SDS011;2451;49.970;9.068;2023-02-15T05:22:15;37.38;;;16.63;;
4873;SDS011;2451;49.970;9.068;2023-02-15T05:24:41;38.88;;;17.20;;
4873;SDS011;2451;49.970;9.068;2023-02-15T05:27:25;41.72;;;17.55;;
4873;SDS011;2451;49.970;9.068;2023-02-15T05:30:09;39.00;;;18.30;;
4873;SDS011;2451;49.970;9.068;2023-02-15T05:32:36;40.78;;;17.38;;
4873;SDS011;2451;49.970;9.068;2023-02-15T05:35:03;38.42;;;17.50;;
4873;SDS011;2451;49.970;9.068;2023-02-15T05:37:29;40.15;;;16.85;;
4873;SDS011;2451;49.970;9.068;2023-02-15T05:39:55;38.58;;;17.27;;
4873;SDS011;2451;49.970;9.068;2023-02-15T05:42:20;34.60;;;15.65;;
4873;SDS011;2451;49.970;9.068;2023-02-15T05:44:46;43.08;;;18.05;;
4873;SDS011;2451;49.970;9.068;2023-02-15T05:47:11;37.33;;;16.67;;
4873;SDS011;2451;49.970;9.068;2023-02-15T05:49:37;36.38;;;15.88;;
4873;SDS011;2451;49.970;9.068;2023-02-15T05:52:02;36.80;;;16.38;;
4873;SDS011;2451;49.970;9.068;2023-02-15T05:54:28;35.03;;;15.95;;
4873;SDS011;2451;49.970;9.068;2023-02-15T05:56:54;37.28;;;16.10;;
4873;SDS011;2451;49.970;9.068;2023-02-15T05:59:19;39.28;;;17.88;;
4873;SDS011;2451;49.970;9.068;2023-02-15T06:01:45;39.88;;;16.25;;
4873;SDS011;2451;49.970;9.068;2023-02-15T06:04:10;40.97;;;16.92;;
4873;SDS011;2451;49.970;9.068;2023-02-15T06:06:36;34.45;;;16.13;;
4873;SDS011;2451;49.970;9.068;2023-02-15T06:09:01;39.97;;;16.98;;
4873;SDS011;2451;49.970;9.068;2023-02-15T06:11:27;40.75;;;16.70;;
4873;SDS011;2451;49.970;9.068;2023-02-15T06:13:52;41.08;;;17.00;;
4873;SDS011;2451;49.970;9.068;2023-02-15T06:16:18;36.80;;;16.40;;
4873;SDS011;2451;49.970;9.068;2023-02-15T06:18:43;36.67;;;16.67;;
4873;SDS011;2451;49.970;9.068;2023-02-15T06:21:09;40.67;;;16.63;;
4873;SDS011;2451;49.970;9.068;2023-02-15T06:23:35;34.65;;;14.90;;
4873;SDS011;2451;49.970;9.068;2023-02-15T06:26:00;33.22;;;15.13;;
4873;SDS011;2451;49.970;9.068;2023-02-15T06:28:26;36.50;;;16.75;;
4873;SDS011;2451;49.970;9.068;2023-02-15T06:30:51;39.80;;;16.13;;
4873;SDS011;2451;49.970;9.068;2023-02-15T06:33:17;36.15;;;16.67;;
4873;SDS011;2451;49.970;9.068;2023-02-15T06:35:42;35.20;;;16.08;;
4873;SDS011;2451;49.970;9.068;2023-02-15T06:38:09;40.63;;;17.23;;
4873;SDS011;2451;49.970;9.068;2023-02-15T06:40:34;38.58;;;17.58;;
4873;SDS011;2451;49.970;9.068;2023-02-15T06:43:00;39.10;;;17.63;;
4873;SDS011;2451;49.970;9.068;2023-02-15T06:45:26;44.15;;;18.52;;
4873;SDS011;2451;49.970;9.068;2023-02-15T06:47:51;43.83;;;18.63;;
4873;SDS011;2451;49.970;9.068;2023-02-15T06:50:17;42.55;;;18.38;;
4873;SDS011;2451;49.970;9.068;2023-02-15T06:52:42;42.53;;;19.52;;
4873;SDS011;2451;49.970;9.068;2023-02-15T06:55:08;42.72;;;17.88;;
4873;SDS011;2451;49.970;9.068;2023-02-15T06:57:33;41.90;;;18.23;;
4873;SDS011;2451;49.970;9.068;2023-02-15T06:59:59;44.17;;;18.08;;
4873;SDS011;2451;49.970;9.068;2023-02-15T07:02:25;38.60;;;17.77;;
4873;SDS011;2451;49.970;9.068;2023-02-15T07:04:50;41.83;;;17.50;;
4873;SDS011;2451;49.970;9.068;2023-02-15T07:07:16;43.15;;;17.60;;
4873;SDS011;2451;49.970;9.068;2023-02-15T07:09:41;40.90;;;16.83;;
4873;SDS011;2451;49.970;9.068;2023-02-15T07:12:07;42.13;;;17.95;;
4873;SDS011;2451;49.970;9.068;2023-02-15T07:14:52;44.08;;;17.73;;
4873;SDS011;2451;49.970;9.068;2023-02-15T07:17:18;39.13;;;17.88;;
4873;SDS011;2451;49.970;9.068;2023-02-15T07:19:43;46.72;;;18.77;;
4873;SDS011;2451;49.970;9.068;2023-02-15T07:22:09;46.00;;;19.15;;
4873;SDS011;2451;49.970;9.068;2023-02-15T07:24:34;42.13;;;17.75;;
4873;SDS011;2451;49.970;9.068;2023-02-15T07:27:00;45.65;;;18.88;;
4873;SDS011;2451;49.970;9.068;2023-02-15T07:29:26;42.83;;;19.00;;
4873;SDS011;2451;49.970;9.068;2023-02-15T07:31:51;39.58;;;17.52;;
4873;SDS011;2451;49.970;9.068;2023-02-15T07:34:17;46.03;;;19.33;;
4873;SDS011;2451;49.970;9.068;2023-02-15T07:36:42;41.15;;;18.60;;
4873;SDS011;2451;49.970;9.068;2023-02-15T07:39:09;41.50;;;18.33;;
4873;SDS011;2451;49.970;9.068;2023-02-15T07:41:35;43.47;;;17.70;;
4873;SDS011;2451;49.970;9.068;2023-02-15T07:44:01;45.05;;;19.40;;
4873;SDS011;2451;49.970;9.068;2023-02-15T07:46:27;50.28;;;21.05;;
4873;SDS011;2451;49.970;9.068;2023-02-15T07:48:52;53.92;;;21.95;;
4873;SDS011;2451;49.970;9.068;2023-02-15T07:51:18;53.35;;;22.25;;
4873;SDS011;2451;49.970;9.068;2023-02-15T07:53:45;53.88;;;22.50;;
4873;SDS011;2451;49.970;9.068;2023-02-15T07:56:12;60.70;;;23.45;;
4873;SDS011;2451;49.970;9.068;2023-02-15T07:58:38;55.90;;;23.25;;
4873;SDS011;2451;49.970;9.068;2023-02-15T08:01:27;51.55;;;23.35;;
4873;SDS011;2451;49.970;9.068;2023-02-15T08:03:55;46.83;;;21.73;;
4873;SDS011;2451;49.970;9.068;2023-02-15T08:06:22;52.83;;;22.00;;
4873;SDS011;2451;49.970;9.068;2023-02-15T08:08:49;46.70;;;21.13;;
4873;SDS011;2451;49.970;9.068;2023-02-15T08:11:15;46.25;;;20.00;;
4873;SDS011;2451;49.970;9.068;2023-02-15T08:16:34;38.55;;;17.80;;
4873;SDS011;2451;49.970;9.068;2023-02-15T08:19:04;38.38;;;17.50;;
4873;SDS011;2451;49.970;9.068;2023-02-15T08:21:35;39.75;;;17.35;;
4873;SDS011;2451;49.970;9.068;2023-02-15T08:24:03;38.55;;;16.73;;
4873;SDS011;2451;49.970;9.068;2023-02-15T08:26:30;41.42;;;18.55;;
4873;SDS011;2451;49.970;9.068;2023-02-15T08:28:56;41.13;;;17.75;;
4873;SDS011;2451;49.970;9.068;2023-02-15T08:31:22;44.47;;;18.15;;
4873;SDS011;2451;49.970;9.068;2023-02-15T08:33:48;40.70;;;17.95;;
4873;SDS011;2451;49.970;9.068;2023-02-15T08:36:17;40.35;;;18.33;;
4873;SDS011;2451;49.970;9.068;2023-02-15T08:38:44;40.05;;;18.10;;
4873;SDS011;2451;49.970;9.068;2023-02-15T08:43:41;39.78;;;18.05;;
4873;SDS011;2451;49.970;9.068;2023-02-15T08:46:08;40.47;;;18.60;;
4873;SDS011;2451;49.970;9.068;2023-02-15T08:48:37;41.42;;;19.10;;
4873;SDS011;2451;49.970;9.068;2023-02-15T08:51:06;43.20;;;18.80;;
4873;SDS011;2451;49.970;9.068;2023-02-15T08:53:35;40.38;;;18.60;;
4873;SDS011;2451;49.970;9.068;2023-02-15T08:58:30;38.08;;;16.80;;
4873;SDS011;2451;49.970;9.068;2023-02-15T09:00:56;45.15;;;18.80;;
4873;SDS011;2451;49.970;9.068;2023-02-15T09:03:22;41.28;;;18.70;;
4873;SDS011;2451;49.970;9.068;2023-02-15T09:05:48;48.47;;;21.15;;
4873;SDS011;2451;49.970;9.068;2023-02-15T09:08:14;38.65;;;18.50;;
4873;SDS011;2451;49.970;9.068;2023-02-15T09:10:40;42.40;;;18.77;;
4873;SDS011;2451;49.970;9.068;2023-02-15T09:13:05;41.20;;;18.58;;
4873;SDS011;2451;49.970;9.068;2023-02-15T09:15:31;38.78;;;19.33;;
4873;SDS011;2451;49.970;9.068;2023-02-15T09:17:56;36.80;;;18.83;;
4873;SDS011;2451;49.970;9.068;2023-02-15T09:20:26;39.25;;;18.35;;
4873;SDS011;2451;49.970;9.068;2023-02-15T09:22:52;38.03;;;18.08;;
4873;SDS011;2451;49.970;9.068;2023-02-15T09:25:19;39.97;;;20.13;;
4873;SDS011;2451;49.970;9.068;2023-02-15T09:27:44;62.40;;;27.70;;
4873;SDS011;2451;49.970;9.068;2023-02-15T09:30:10;70.80;;;30.10;;
4873;SDS011;2451;49.970;9.068;2023-02-15T09:32:36;51.40;;;24.35;;
4873;SDS011;2451;49.970;9.068;2023-02-15T09:35:02;43.55;;;22.65;;
4873;SDS011;2451;49.970;9.068;2023-02-15T09:37:27;38.70;;;20.05;;
4873;SDS011;2451;49.970;9.068;2023-02-15T09:39:54;45.80;;;22.30;;
4873;SDS011;2451;49.970;9.068;2023-02-15T09:45:19;37.30;;;18.48;;
4873;SDS011;2451;49.970;9.068;2023-02-15T09:48:01;36.85;;;18.23;;
4873;SDS011;2451;49.970;9.068;2023-02-15T09:53:29;38.88;;;18.27;;
4873;SDS011;2451;49.970;9.068;2023-02-15T09:56:09;39.25;;;18.75;;
4873;SDS011;2451;49.970;9.068;2023-02-15T10:01:23;40.45;;;20.17;;
4873;SDS011;2451;49.970;9.068;2023-02-15T10:12:51;37.50;;;19.95;;
4873;SDS011;2451;49.970;9.068;2023-02-15T10:18:32;35.00;;;18.23;;
4873;SDS011;2451;49.970;9.068;2023-02-15T10:26:36;36.38;;;17.08;;
4873;SDS011;2451;49.970;9.068;2023-02-15T10:29:45;34.25;;;17.77;;
4873;SDS011;2451;49.970;9.068;2023-02-15T10:32:19;32.97;;;17.33;;
4873;SDS011;2451;49.970;9.068;2023-02-15T10:34:54;35.03;;;17.98;;
4873;SDS011;2451;49.970;9.068;2023-02-15T10:48:22;35.25;;;17.83;;
4873;SDS011;2451;49.970;9.068;2023-02-15T10:50:59;33.42;;;18.15;;
4873;SDS011;2451;49.970;9.068;2023-02-15T10:56:20;37.22;;;18.17;;
4873;SDS011;2451;49.970;9.068;2023-02-15T11:01:44;33.53;;;19.13;;
4873;SDS011;2451;49.970;9.068;2023-02-15T11:07:16;32.05;;;18.10;;
4873;SDS011;2451;49.970;9.068;2023-02-15T11:09:51;33.70;;;17.80;;
4873;SDS011;2451;49.970;9.068;2023-02-15T11:12:53;31.75;;;18.13;;
4873;SDS011;2451;49.970;9.068;2023-02-15T11:15:31;31.45;;;17.27;;
4873;SDS011;2451;49.970;9.068;2023-02-15T11:23:41;31.77;;;18.27;;
4873;SDS011;2451;49.970;9.068;2023-02-15T11:26:14;32.28;;;18.42;;
4873;SDS011;2451;49.970;9.068;2023-02-15T11:28:46;35.33;;;18.85;;
4873;SDS011;2451;49.970;9.068;2023-02-15T11:31:17;31.27;;;18.33;;
4873;SDS011;2451;49.970;9.068;2023-02-15T11:33:46;33.45;;;18.80;;
4873;SDS011;2451;49.970;9.068;2023-02-15T11:36:33;31.50;;;19.35;;
4873;SDS011;2451;49.970;9.068;2023-02-15T11:39:03;33.00;;;19.65;;
4873;SDS011;2451;49.970;9.068;2023-02-15T11:41:37;28.67;;;17.80;;
4873;SDS011;2451;49.970;9.068;2023-02-15T11:44:22;29.23;;;17.70;;
4873;SDS011;2451;49.970;9.068;2023-02-15T11:46:51;30.23;;;17.73;;
4873;SDS011;2451;49.970;9.068;2023-02-15T11:51:48;29.52;;;18.48;;
4873;SDS011;2451;49.970;9.068;2023-02-15T11:54:16;30.70;;;18.52;;
4873;SDS011;2451;49.970;9.068;2023-02-15T11:56:44;31.33;;;17.65;;
4873;SDS011;2451;49.970;9.068;2023-02-15T11:59:11;29.60;;;17.42;;
4873;SDS011;2451;49.970;9.068;2023-02-15T12:12:21;29.08;;;17.25;;
4873;SDS011;2451;49.970;9.068;2023-02-15T12:14:52;29.30;;;17.02;;
4873;SDS011;2451;49.970;9.068;2023-02-15T12:17:23;29.38;;;18.35;;
4873;SDS011;2451;49.970;9.068;2023-02-15T12:20:01;30.17;;;17.70;;
4873;SDS011;2451;49.970;9.068;2023-02-15T12:22:39;29.48;;;18.75;;
4873;SDS011;2451;49.970;9.068;2023-02-15T12:25:21;31.17;;;17.83;;
4873;SDS011;2451;49.970;9.068;2023-02-15T12:31:17;29.20;;;17.20;;
4873;SDS011;2451;49.970;9.068;2023-02-15T12:33:50;28.00;;;17.42;;
4873;SDS011;2451;49.970;9.068;2023-02-15T12:36:19;30.83;;;18.10;;
4873;SDS011;2451;49.970;9.068;2023-02-15T12:39:16;29.50;;;18.13;;
4873;SDS011;2451;49.970;9.068;2023-02-15T12:44:25;29.50;;;17.90;;
4873;SDS011;2451;49.970;9.068;2023-02-15T12:47:05;28.20;;;16.02;;
4873;SDS011;2451;49.970;9.068;2023-02-15T12:49:44;28.42;;;17.52;;
4873;SDS011;2451;49.970;9.068;2023-02-15T12:52:28;27.25;;;17.23;;
4873;SDS011;2451;49.970;9.068;2023-02-15T12:54:54;25.65;;;16.92;;
4873;SDS011;2451;49.970;9.068;2023-02-15T12:59:58;23.80;;;15.30;;
4873;SDS011;2451;49.970;9.068;2023-02-15T13:08:30;24.67;;;15.95;;
4873;SDS011;2451;49.970;9.068;2023-02-15T13:13:20;25.02;;;17.13;;
4873;SDS011;2451;49.970;9.068;2023-02-15T13:15:53;25.27;;;16.65;;
4873;SDS011;2451;49.970;9.068;2023-02-15T13:18:27;24.38;;;15.93;;
4873;SDS011;2451;49.970;9.068;2023-02-15T13:20:56;23.40;;;16.60;;
4873;SDS011;2451;49.970;9.068;2023-02-15T13:23:26;23.92;;;16.70;;
4873;SDS011;2451;49.970;9.068;2023-02-15T13:25:53;22.33;;;16.25;;
4873;SDS011;2451;49.970;9.068;2023-02-15T13:28:38;23.80;;;16.88;;
4873;SDS011;2451;49.970;9.068;2023-02-15T13:31:11;23.00;;;15.98;;
4873;SDS011;2451;49.970;9.068;2023-02-15T13:33:50;23.52;;;16.50;;
4873;SDS011;2451;49.970;9.068;2023-02-15T13:36:34;23.98;;;17.00;;
4873;SDS011;2451;49.970;9.068;2023-02-15T13:39:54;23.65;;;16.08;;
4873;SDS011;2451;49.970;9.068;2023-02-15T13:48:00;23.33;;;16.60;;
4873;SDS011;2451;49.970;9.068;2023-02-15T14:01:08;23.90;;;15.10;;
4873;SDS011;2451;49.970;9.068;2023-02-15T14:12:12;22.33;;;15.40;;
4873;SDS011;2451;49.970;9.068;2023-02-15T14:15:06;20.88;;;15.85;;
4873;SDS011;2451;49.970;9.068;2023-02-15T14:21:01;22.20;;;15.18;;
4873;SDS011;2451;49.970;9.068;2023-02-15T14:23:43;21.05;;;14.82;;
4873;SDS011;2451;49.970;9.068;2023-02-15T14:26:34;19.95;;;14.75;;
4873;SDS011;2451;49.970;9.068;2023-02-15T14:31:41;22.98;;;14.73;;
4873;SDS011;2451;49.970;9.068;2023-02-15T14:34:35;21.67;;;15.07;;
4873;SDS011;2451;49.970;9.068;2023-02-15T14:37:02;21.98;;;15.30;;
4873;SDS011;2451;49.970;9.068;2023-02-15T14:39:36;21.77;;;15.43;;
4873;SDS011;2451;49.970;9.068;2023-02-15T14:42:30;24.05;;;15.27;;
4873;SDS011;2451;49.970;9.068;2023-02-15T14:47:49;24.55;;;15.75;;
4873;SDS011;2451;49.970;9.068;2023-02-15T14:50:37;19.58;;;14.07;;
4873;SDS011;2451;49.970;9.068;2023-02-15T14:58:56;20.30;;;14.32;;
4873;SDS011;2451;49.970;9.068;2023-02-15T15:03:57;21.27;;;14.23;;
4873;SDS011;2451;49.970;9.068;2023-02-15T15:06:26;22.25;;;15.15;;
4873;SDS011;2451;49.970;9.068;2023-02-15T15:09:10;20.35;;;15.10;;
4873;SDS011;2451;49.970;9.068;2023-02-15T15:14:04;22.73;;;14.93;;
4873;SDS011;2451;49.970;9.068;2023-02-15T15:16:31;23.10;;;15.07;;
4873;SDS011;2451;49.970;9.068;2023-02-15T15:19:01;21.70;;;15.10;;
4873;SDS011;2451;49.970;9.068;2023-02-15T15:32:44;22.70;;;15.80;;
4873;SDS011;2451;49.970;9.068;2023-02-15T15:49:50;26.95;;;18.27;;
4873;SDS011;2451;49.970;9.068;2023-02-15T15:52:20;26.33;;;16.85;;
4873;SDS011;2451;49.970;9.068;2023-02-15T15:54:48;28.00;;;18.05;;
4873;SDS011;2451;49.970;9.068;2023-02-15T15:57:24;26.35;;;17.10;;
4873;SDS011;2451;49.970;9.068;2023-02-15T16:00:04;25.17;;;16.77;;
4873;SDS011;2451;49.970;9.068;2023-02-15T16:02:51;23.27;;;15.60;;
4873;SDS011;2451;49.970;9.068;2023-02-15T16:05:18;27.38;;;18.08;;
4873;SDS011;2451;49.970;9.068;2023-02-15T16:07:44;29.25;;;19.10;;
4873;SDS011;2451;49.970;9.068;2023-02-15T16:10:20;26.15;;;17.65;;
4873;SDS011;2451;49.970;9.068;2023-02-15T16:12:50;26.45;;;17.65;;
4873;SDS011;2451;49.970;9.068;2023-02-15T16:15:24;28.35;;;17.42;;
4873;SDS011;2451;49.970;9.068;2023-02-15T16:17:56;28.65;;;17.23;;
4873;SDS011;2451;49.970;9.068;2023-02-15T16:20:24;26.00;;;17.40;;
4873;SDS011;2451;49.970;9.068;2023-02-15T16:28:38;33.85;;;22.63;;
4873;SDS011;2451;49.970;9.068;2023-02-15T16:31:14;36.63;;;21.88;;
4873;SDS011;2451;49.970;9.068;2023-02-15T16:33:40;31.70;;;21.90;;
4873;SDS011;2451;49.970;9.068;2023-02-15T16:36:10;33.60;;;22.23;;
4873;SDS011;2451;49.970;9.068;2023-02-15T16:41:12;37.95;;;24.15;;
4873;SDS011;2451;49.970;9.068;2023-02-15T16:43:40;37.25;;;24.92;;
4873;SDS011;2451;49.970;9.068;2023-02-15T16:46:10;36.80;;;23.98;;
4873;SDS011;2451;49.970;9.068;2023-02-15T16:48:41;33.05;;;21.75;;
4873;SDS011;2451;49.970;9.068;2023-02-15T16:51:10;33.45;;;20.77;;
4873;SDS011;2451;49.970;9.068;2023-02-15T16:53:46;33.92;;;22.70;;
4873;SDS011;2451;49.970;9.068;2023-02-15T16:56:13;32.70;;;21.48;;
4873;SDS011;2451;49.970;9.068;2023-02-15T16:58:41;36.03;;;22.58;;
4873;SDS011;2451;49.970;9.068;2023-02-15T17:01:10;34.28;;;21.52;;
4873;SDS011;2451;49.970;9.068;2023-02-15T17:03:39;31.98;;;21.67;;
4873;SDS011;2451;49.970;9.068;2023-02-15T17:06:17;30.27;;;20.88;;
4873;SDS011;2451;49.970;9.068;2023-02-15T17:08:46;28.50;;;19.92;;
4873;SDS011;2451;49.970;9.068;2023-02-15T17:19:01;35.03;;;20.13;;
4873;SDS011;2451;49.970;9.068;2023-02-15T17:21:30;31.60;;;19.63;;
4873;SDS011;2451;49.970;9.068;2023-02-15T17:23:58;33.88;;;20.27;;
4873;SDS011;2451;49.970;9.068;2023-02-15T17:26:27;30.58;;;18.10;;
4873;SDS011;2451;49.970;9.068;2023-02-15T17:29:00;34.47;;;20.85;;
4873;SDS011;2451;49.970;9.068;2023-02-15T17:31:36;32.75;;;20.75;;
4873;SDS011;2451;49.970;9.068;2023-02-15T17:34:02;36.17;;;21.73;;
4873;SDS011;2451;49.970;9.068;2023-02-15T17:36:29;36.22;;;22.67;;
4873;SDS011;2451;49.970;9.068;2023-02-15T17:41:50;42.15;;;23.98;;
4873;SDS011;2451;49.970;9.068;2023-02-15T17:44:17;36.90;;;22.00;;
4873;SDS011;2451;49.970;9.068;2023-02-15T17:46:43;35.85;;;20.30;;
4873;SDS011;2451;49.970;9.068;2023-02-15T17:49:13;36.65;;;20.58;;
4873;SDS011;2451;49.970;9.068;2023-02-15T17:51:47;38.47;;;22.27;;
4873;SDS011;2451;49.970;9.068;2023-02-15T17:54:13;38.22;;;21.60;;
4873;SDS011;2451;49.970;9.068;2023-02-15T17:56:57;45.35;;;25.17;;
4873;SDS011;2451;49.970;9.068;2023-02-15T17:59:29;42.80;;;24.15;;
4873;SDS011;2451;49.970;9.068;2023-02-15T18:01:55;38.95;;;21.38;;
4873;SDS011;2451;49.970;9.068;2023-02-15T18:04:39;39.30;;;23.05;;
4873;SDS011;2451;49.970;9.068;2023-02-15T18:07:23;41.55;;;22.08;;
4873;SDS011;2451;49.970;9.068;2023-02-15T18:10:17;40.35;;;22.33;;
4873;SDS011;2451;49.970;9.068;2023-02-15T18:13:02;62.60;;;30.50;;
4873;SDS011;2451;49.970;9.068;2023-02-15T18:15:28;56.95;;;30.00;;
4873;SDS011;2451;49.970;9.068;2023-02-15T18:17:54;51.30;;;27.48;;
4873;SDS011;2451;49.970;9.068;2023-02-15T18:20:23;61.80;;;32.95;;
4873;SDS011;2451;49.970;9.068;2023-02-15T18:22:52;59.38;;;32.95;;
4873;SDS011;2451;49.970;9.068;2023-02-15T18:25:19;78.50;;;41.00;;
4873;SDS011;2451;49.970;9.068;2023-02-15T18:27:47;75.30;;;37.40;;
4873;SDS011;2451;49.970;9.068;2023-02-15T18:30:13;57.17;;;33.90;;
4873;SDS011;2451;49.970;9.068;2023-02-15T18:32:41;44.92;;;25.73;;
4873;SDS011;2451;49.970;9.068;2023-02-15T18:35:12;42.67;;;23.77;;
4873;SDS011;2451;49.970;9.068;2023-02-15T18:37:40;44.25;;;24.40;;